Time;durP1;ratioP1;P1;durP2;ratioP2;P2;SDS_P1;SDS_P2;PMS_P1;PMS_P2;Temp;Humidity;BMP_temperature;BMP_pressure;BME280_temperature;BME280_humidity;BME280_pressure;Samples;Min_cycle;Max_cycle;Signal;HPM_P1;HPM_P2
2023/12/13 00:02:14;;;;;;;;;;;;;;;;;;5099263;28;19954;-82
2023/12/13 00:04:39;;;;;;;;;;;;;;;;;;5100501;28;19908;-82
2023/12/13 00:07:04;;;;;;;;;;;;;;;;;;5101281;28;20374;-82
2023/12/13 00:09:29;;;;;;;;;;;;;;;;;;5101566;28;20273;-82
2023/12/13 00:11:54;;;;;;;;;;;;;;;;;;5100328;28;19908;-82
2023/12/13 00:14:20;;;;;;;;;;;;;;;;;;5102449;28;19919;-82
2023/12/13 00:16:46;;;;;;;;;;;;;;;;;;5100238;28;19908;-82
2023/12/13 00:19:11;;;;;;;;;;;;;;;;;;5097080;28;20222;-82
2023/12/13 00:21:36;;;;;;;;;;;;;;;;;;5098152;28;19969;-82
2023/12/13 00:24:01;;;;;;;;;;;;;;;;;;5101654;28;19934;-82
2023/12/13 00:26:26;;;;;;;;;;;;;;;;;;5101102;28;20152;-82
2023/12/13 00:28:52;;;;;;;;;;;;;;;;;;5102505;28;19908;-82
2023/12/13 00:31:17;;;;;;;;;;;;;;;;;;5100643;28;20293;-82
2023/12/13 00:33:42;;;;;;;;;;;;;;;;;;5102402;28;19915;-82
2023/12/13 00:36:07;;;;;;;;;;;;;;;;;;5100549;28;19915;-82
2023/12/13 00:38:32;;;;;;;;;;;;;;;;;;5101311;28;19913;-81
2023/12/13 00:40:57;;;;;;;;;;;;;;;;;;5098893;28;19966;-82
2023/12/13 00:43:23;;;;;;;;;;;;;;;;;;5096361;28;19908;-82
2023/12/13 00:45:48;;;;;;;;;;;;;;;;;;5101215;28;20281;-82
2023/12/13 00:48:13;;;;;;;;;;;;;;;;;;5105245;28;20007;-82
2023/12/13 00:50:38;;;;;;;;;;;;;;;;;;5104433;28;19908;-82
2023/12/13 00:53:03;;;;;;;;;;;;;;;;;;5105728;28;20190;-82
2023/12/13 00:55:28;;;;;;;;;;;;;;;;;;5104935;28;19908;-82
2023/12/13 00:57:53;;;;;;;;;;;;;;;;;;5106586;28;19912;-82
2023/12/13 01:00:18;;;;;;;;;;;;;;;;;;5104273;28;19916;-82
2023/12/13 01:02:43;;;;;;;;;;;;;;;;;;5104832;28;19954;-82
2023/12/13 01:05:09;;;;;;;;;;;;;;;;;;5104329;28;19947;-82
2023/12/13 01:07:34;;;;;;;;;;;;;;;;;;5105502;28;19908;-83
2023/12/13 01:09:59;;;;;;;;;;;;;;;;;;5106324;28;19909;-82
2023/12/13 01:12:24;;;;;;;;;;;;;;;;;;5106032;28;20393;-83
2023/12/13 01:14:49;;;;;;;;;;;;;;;;;;5106773;28;19908;-82
2023/12/13 01:17:14;;;;;;;;;;;;;;;;;;5106356;28;19912;-82
2023/12/13 01:19:39;;;;;;;;;;;;;;;;;;5104487;28;19908;-82
2023/12/13 01:22:04;;;;;;;;;;;;;;;;;;5104082;28;19928;-82
2023/12/13 01:24:29;;;;;;;;;;;;;;;;;;5103832;28;19995;-82
2023/12/13 01:26:55;;;;;;;;;;;;;;;;;;5104021;28;19908;-82
2023/12/13 01:29:20;;;;;;;;;;;;;;;;;;5103395;28;19916;-81
2023/12/13 01:31:45;;;;;;;;;;;;;;;;;;5098474;28;19908;-81
2023/12/13 01:34:10;;;;;;;;;;;;;;;;;;5097942;28;20391;-81
2023/12/13 01:36:35;;;;;;;;;;;;;;;;;;5098242;28;19908;-81
2023/12/13 01:39:00;;;;;;;;;;;;;;;;;;5096635;28;19963;-81
2023/12/13 01:41:25;;;;;;;;;;;;;;;;;;5098182;28;19943;-82
2023/12/13 01:43:50;;;;;;;;;;;;;;;;;;5096799;28;20010;-81
2023/12/13 01:46:16;;;;;;;;;;;;;;;;;;5097504;28;19964;-82
2023/12/13 01:48:41;;;;;;;;;;;;;;;;;;5097389;28;19935;-82
2023/12/13 01:51:06;;;;;;;;;;;;;;;;;;5097097;28;20381;-82
2023/12/13 01:53:31;;;;;;;;;;;;;;;;;;5098209;28;19912;-81
2023/12/13 01:55:56;;;;;;;;;;;;;;;;;;5098016;28;19934;-82
2023/12/13 01:58:21;;;;;;;;;;;;;;;;;;5097792;28;19919;-81
2023/12/13 02:00:46;;;;;;;;;;;;;;;;;;5096685;28;19931;-82
2023/12/13 02:03:12;;;;;;;;;;;;;;;;;;5098785;28;19908;-82
2023/12/13 02:05:37;;;;;;;;;;;;;;;;;;5098102;28;19909;-82
2023/12/13 02:08:02;;;;;;;;;;;;;;;;;;5098152;28;19912;-82
2023/12/13 02:10:28;;;;;;;;;;;;;;;;;;5097842;28;19987;-82
2023/12/13 02:12:53;;;;;;;;;;;;;;;;;;5097516;28;20296;-82
2023/12/13 02:15:18;;;;;;;;;;;;;;;;;;5097319;28;19912;-81
2023/12/13 02:17:43;;;;;;;;;;;;;;;;;;5095449;28;19912;-81
2023/12/13 02:20:08;;;;;;;;;;;;;;;;;;5095304;28;19908;-82
2023/12/13 02:22:33;;;;;;;;;;;;;;;;;;5095672;28;19912;-81
2023/12/13 02:24:59;;;;;;;;;;;;;;;;;;5095380;28;19912;-82
2023/12/13 02:27:28;;;;;;;;;;;;;;;;;;5097064;28;19957;-81
2023/12/13 02:29:53;;;;;;;;;;;;;;;;;;5100216;28;19908;-82
2023/12/13 02:32:19;;;;;;;;;;;;;;;;;;5100833;28;19909;-81
2023/12/13 02:34:44;;;;;;;;;;;;;;;;;;5100952;28;19908;-81
2023/12/13 02:37:09;;;;;;;;;;;;;;;;;;5099259;28;19916;-82
2023/12/13 02:39:34;;;;;;;;;;;;;;;;;;5101030;28;19908;-81
2023/12/13 02:41:59;;;;;;;;;;;;;;;;;;5100800;28;19992;-81
2023/12/13 02:44:24;;;;;;;;;;;;;;;;;;5100430;28;19947;-81
2023/12/13 02:46:49;;;;;;;;;;;;;;;;;;5099315;28;20057;-81
2023/12/13 02:49:14;;;;;;;;;;;;;;;;;;5101033;28;19968;-81
2023/12/13 02:51:39;;;;;;;;;;;;;;;;;;5101138;28;20281;-81
2023/12/13 02:54:05;;;;;;;;;;;;;;;;;;5099752;28;20003;-81
2023/12/13 02:56:30;;;;;;;;;;;;;;;;;;5100564;28;20156;-81
2023/12/13 02:58:55;;;;;;;;;;;;;;;;;;5100812;28;19912;-82
2023/12/13 03:01:20;;;;;;;;;;;;;;;;;;5101922;28;20001;-82
2023/12/13 03:03:45;;;;;;;;;;;;;;;;;;5101329;28;19909;-82
2023/12/13 03:06:10;;;;;;;;;;;;;;;;;;5102176;28;19908;-82
2023/12/13 03:08:36;;;;;;;;;;;;;;;;;;5100391;28;19909;-82
2023/12/13 03:11:01;;;;;;;;;;;;;;;;;;5100222;28;19987;-81
2023/12/13 03:13:26;;;;;;;;;;;;;;;;;;5100590;28;19908;-82
2023/12/13 03:15:51;;;;;;;;;;;;;;;;;;5099272;28;19908;-82
2023/12/13 03:18:16;;;;;;;;;;;;;;;;;;5098140;28;19934;-81
2023/12/13 03:20:41;;;;;;;;;;;;;;;;;;5097572;28;19908;-82
2023/12/13 03:23:08;;;;;;;;;;;;;;;;;;5100357;28;19915;-82
2023/12/13 03:25:34;;;;;;;;;;;;;;;;;;5091376;28;19982;-82
2023/12/13 03:27:59;;;;;;;;;;;;;;;;;;5090707;28;19908;-81
2023/12/13 03:30:24;;;;;;;;;;;;;;;;;;5099107;28;20323;-82
2023/12/13 03:32:49;;;;;;;;;;;;;;;;;;5098725;28;19909;-81
2023/12/13 03:35:14;;;;;;;;;;;;;;;;;;5097233;28;19915;-82
2023/12/13 03:37:39;;;;;;;;;;;;;;;;;;5096922;28;19912;-82
2023/12/13 03:40:04;;;;;;;;;;;;;;;;;;5097475;28;19915;-82
2023/12/13 03:42:29;;;;;;;;;;;;;;;;;;5099967;28;19912;-82
2023/12/13 03:44:56;;;;;;;;;;;;;;;;;;5098992;28;20331;-82
2023/12/13 03:47:21;;;;;;;;;;;;;;;;;;5099222;28;19944;-82
2023/12/13 03:49:46;;;;;;;;;;;;;;;;;;5099358;28;19908;-82
2023/12/13 03:52:11;;;;;;;;;;;;;;;;;;5100985;28;19920;-82
2023/12/13 03:54:36;;;;;;;;;;;;;;;;;;5101129;28;19908;-83
2023/12/13 03:57:01;;;;;;;;;;;;;;;;;;5100190;28;19931;-82
2023/12/13 03:59:26;;;;;;;;;;;;;;;;;;5102272;28;19908;-82
2023/12/13 04:01:52;;;;;;;;;;;;;;;;;;5100787;28;19961;-82
2023/12/13 04:04:17;;;;;;;;;;;;;;;;;;5103189;28;19979;-82
2023/12/13 04:06:42;;;;;;;;;;;;;;;;;;5102305;28;19908;-82
2023/12/13 04:09:07;;;;;;;;;;;;;;;;;;5101926;28;19909;-83
2023/12/13 04:11:32;;;;;;;;;;;;;;;;;;5103230;28;19915;-82
2023/12/13 04:13:57;;;;;;;;;;;;;;;;;;5102298;28;19916;-82
2023/12/13 04:16:22;;;;;;;;;;;;;;;;;;5102075;28;19908;-82
2023/12/13 04:18:47;;;;;;;;;;;;;;;;;;5102280;28;20487;-82
2023/12/13 04:21:12;;;;;;;;;;;;;;;;;;5104049;28;20003;-82
2023/12/13 04:23:38;;;;;;;;;;;;;;;;;;5107156;28;19909;-82
2023/12/13 04:26:03;;;;;;;;;;;;;;;;;;5097927;28;19934;-82
2023/12/13 04:28:28;;;;;;;;;;;;;;;;;;5100272;28;19908;-82
2023/12/13 04:30:53;;;;;;;;;;;;;;;;;;5104351;28;19908;-82
2023/12/13 04:33:18;;;;;;;;;;;;;;;;;;5107046;28;19908;-82
2023/12/13 04:35:43;;;;;;;;;;;;;;;;;;5106991;28;19908;-82
2023/12/13 04:38:08;;;;;;;;;;;;;;;;;;5107710;28;19912;-82
2023/12/13 04:40:33;;;;;;;;;;;;;;;;;;5106103;28;19915;-82
2023/12/13 04:43:00;;;;;;;;;;;;;;;;;;5107468;28;19908;-82
2023/12/13 04:45:25;;;;;;;;;;;;;;;;;;5108145;28;19909;-82
2023/12/13 04:47:50;;;;;;;;;;;;;;;;;;5105809;28;20293;-82
2023/12/13 04:50:15;;;;;;;;;;;;;;;;;;5106326;28;19908;-81
2023/12/13 04:52:40;;;;;;;;;;;;;;;;;;5105984;28;19926;-82
2023/12/13 04:55:05;;;;;;;;;;;;;;;;;;5105871;28;19944;-82
2023/12/13 04:57:31;;;;;;;;;;;;;;;;;;5107762;28;19965;-82
2023/12/13 04:59:56;;;;;;;;;;;;;;;;;;5103487;28;19915;-81
2023/12/13 05:02:21;;;;;;;;;;;;;;;;;;5095473;28;19908;-82
2023/12/13 05:04:47;;;;;;;;;;;;;;;;;;5095725;28;19957;-82
2023/12/13 05:07:12;;;;;;;;;;;;;;;;;;5095671;28;20389;-81
2023/12/13 05:09:37;;;;;;;;;;;;;;;;;;5096513;28;19908;-82
2023/12/13 05:12:02;;;;;;;;;;;;;;;;;;5096549;28;19945;-82
2023/12/13 05:14:27;;;;;;;;;;;;;;;;;;5095222;28;19908;-82
2023/12/13 05:16:52;;;;;;;;;;;;;;;;;;5094808;28;19969;-81
2023/12/13 05:19:17;;;;;;;;;;;;;;;;;;5094622;28;19919;-82
2023/12/13 05:21:42;;;;;;;;;;;;;;;;;;5094834;28;19917;-81
2023/12/13 05:24:08;;;;;;;;;;;;;;;;;;5100168;28;19908;-81
2023/12/13 05:26:33;;;;;;;;;;;;;;;;;;5100096;28;20328;-82
2023/12/13 05:28:58;;;;;;;;;;;;;;;;;;5101820;28;19908;-82
2023/12/13 05:31:24;;;;;;;;;;;;;;;;;;5091895;28;19930;-82
2023/12/13 05:33:49;;;;;;;;;;;;;;;;;;5100388;28;19960;-82
2023/12/13 05:36:14;;;;;;;;;;;;;;;;;;5099971;28;19912;-82
2023/12/13 05:38:39;;;;;;;;;;;;;;;;;;5100916;28;20387;-81
2023/12/13 05:41:04;;;;;;;;;;;;;;;;;;5100226;28;19908;-82
2023/12/13 05:43:30;;;;;;;;;;;;;;;;;;5101757;28;19909;-81
2023/12/13 05:45:55;;;;;;;;;;;;;;;;;;5100341;28;19908;-82
2023/12/13 05:48:20;;;;;;;;;;;;;;;;;;5101824;28;19919;-82
2023/12/13 05:50:45;;;;;;;;;;;;;;;;;;5100482;28;19908;-82
2023/12/13 05:53:10;;;;;;;;;;;;;;;;;;5102023;28;19916;-82
2023/12/13 05:55:35;;;;;;;;;;;;;;;;;;5102342;28;19916;-83
2023/12/13 05:58:00;;;;;;;;;;;;;;;;;;5101668;28;19945;-81
2023/12/13 06:00:25;;;;;;;;;;;;;;;;;;5100052;28;19915;-82
2023/12/13 06:02:50;;;;;;;;;;;;;;;;;;5099785;28;20434;-81
2023/12/13 06:05:16;;;;;;;;;;;;;;;;;;5101186;28;19909;-81
2023/12/13 06:07:41;;;;;;;;;;;;;;;;;;5101922;28;19912;-81
2023/12/13 06:10:07;;;;;;;;;;;;;;;;;;5101289;28;19961;-81
2023/12/13 06:12:32;;;;;;;;;;;;;;;;;;5100592;28;19915;-81
2023/12/13 06:14:58;;;;;;;;;;;;;;;;;;5101640;28;19924;-82
2023/12/13 06:17:23;;;;;;;;;;;;;;;;;;5099854;28;20333;-82
2023/12/13 06:19:48;;;;;;;;;;;;;;;;;;5099688;28;20384;-81
2023/12/13 06:22:13;;;;;;;;;;;;;;;;;;5100085;28;19915;-81
2023/12/13 06:24:38;;;;;;;;;;;;;;;;;;5098903;28;19908;-82
2023/12/13 06:27:03;;;;;;;;;;;;;;;;;;5099929;28;20092;-82
2023/12/13 06:29:28;;;;;;;;;;;;;;;;;;5099779;28;19929;-81
2023/12/13 06:31:54;;;;;;;;;;;;;;;;;;5099227;28;19914;-81
2023/12/13 06:34:19;;;;;;;;;;;;;;;;;;5101148;28;19908;-82
2023/12/13 06:36:45;;;;;;;;;;;;;;;;;;5100008;28;19921;-82
2023/12/13 06:39:11;;;;;;;;;;;;;;;;;;5099175;28;20362;-82
2023/12/13 06:41:37;;;;;;;;;;;;;;;;;;5101544;28;19937;-82
2023/12/13 06:44:02;;;;;;;;;;;;;;;;;;5090870;28;19908;-82
2023/12/13 06:46:27;;;;;;;;;;;;;;;;;;5101986;28;19908;-82
2023/12/13 06:48:54;;;;;;;;;;;;;;;;;;5101246;28;20392;-82
2023/12/13 06:51:19;;;;;;;;;;;;;;;;;;5099503;28;19912;-82
2023/12/13 06:53:44;;;;;;;;;;;;;;;;;;5100579;28;20335;-82
2023/12/13 06:56:09;;;;;;;;;;;;;;;;;;5100314;28;19995;-82
2023/12/13 06:58:35;;;;;;;;;;;;;;;;;;5099131;28;19916;-82
2023/12/13 07:01:01;;;;;;;;;;;;;;;;;;5100094;28;19919;-82
2023/12/13 07:03:26;;;;;;;;;;;;;;;;;;5101141;28;19915;-82
2023/12/13 07:05:51;;;;;;;;;;;;;;;;;;5100265;28;20269;-82
2023/12/13 07:08:16;;;;;;;;;;;;;;;;;;5102074;28;19936;-82
2023/12/13 07:10:41;;;;;;;;;;;;;;;;;;5099959;28;19959;-82
2023/12/13 07:13:06;;;;;;;;;;;;;;;;;;5101706;28;19979;-82
2023/12/13 07:15:32;;;;;;;;;;;;;;;;;;5100874;28;19995;-82
2023/12/13 07:17:57;;;;;;;;;;;;;;;;;;5101009;28;19920;-82
2023/12/13 07:20:23;;;;;;;;;;;;;;;;;;5102208;28;19941;-83
2023/12/13 07:22:50;;;;;;;;;;;;;;;;;;5105065;28;19934;-83
2023/12/13 07:25:15;;;;;;;;;;;;;;;;;;5104748;28;19938;-83
2023/12/13 07:27:40;;;;;;;;;;;;;;;;;;5103209;28;19908;-83
2023/12/13 07:30:05;;;;;;;;;;;;;;;;;;5095474;28;20293;-83
2023/12/13 07:32:31;;;;;;;;;;;;;;;;;;5105672;28;19923;-82
2023/12/13 07:34:56;;;;;;;;;;;;;;;;;;5103161;28;19934;-83
2023/12/13 07:37:21;;;;;;;;;;;;;;;;;;5104208;28;19912;-83
2023/12/13 07:39:47;;;;;;;;;;;;;;;;;;5102965;28;19912;-82
2023/12/13 07:42:12;;;;;;;;;;;;;;;;;;5103359;28;19912;-83
2023/12/13 07:44:37;;;;;;;;;;;;;;;;;;5105126;28;19909;-83
2023/12/13 07:47:02;;;;;;;;;;;;;;;;;;5102702;28;19908;-83
2023/12/13 07:49:27;;;;;;;;;;;;;;;;;;5102806;28;19968;-83
2023/12/13 07:51:52;;;;;;;;;;;;;;;;;;5103818;28;19971;-83
2023/12/13 07:54:18;;;;;;;;;;;;;;;;;;5104371;28;19908;-82
2023/12/13 07:56:45;;;;;;;;;;;;;;;;;;5102729;28;19912;-83
2023/12/13 07:59:10;;;;;;;;;;;;;;;;;;5102825;28;19933;-82
2023/12/13 08:01:35;;;;;;;;;;;;;;;;;;5095101;28;19973;-84
2023/12/13 08:04:00;;;;;;;;;;;;;;;;;;5104273;28;19916;-83
2023/12/13 08:06:26;;;;;;;;;;;;;;;;;;5102971;28;20322;-83
2023/12/13 08:08:51;;;;;;;;;;;;;;;;;;5102497;28;20408;-82
2023/12/13 08:11:16;;;;;;;;;;;;;;;;;;5104188;28;19915;-83
2023/12/13 08:13:42;;;;;;;;;;;;;;;;;;5103326;28;19930;-82
2023/12/13 08:16:07;;;;;;;;;;;;;;;;;;5103368;28;19943;-82
2023/12/13 08:18:32;;;;;;;;;;;;;;;;;;5102719;28;20252;-82
2023/12/13 08:20:57;;;;;;;;;;;;;;;;;;5102631;28;19924;-82
2023/12/13 08:23:22;;;;;;;;;;;;;;;;;;5101915;28;19909;-83
2023/12/13 08:25:47;;;;;;;;;;;;;;;;;;5100542;28;19920;-82
2023/12/13 08:28:12;;;;;;;;;;;;;;;;;;5101000;28;19908;-82
2023/12/13 08:30:38;;;;;;;;;;;;;;;;;;5104741;28;20418;-83
2023/12/13 08:33:03;;;;;;;;;;;;;;;;;;5102342;28;19908;-83
2023/12/13 08:35:28;;;;;;;;;;;;;;;;;;5102659;28;19909;-82
2023/12/13 08:37:54;;;;;;;;;;;;;;;;;;5103756;28;19934;-83
2023/12/13 08:40:19;;;;;;;;;;;;;;;;;;5103144;28;19908;-82
2023/12/13 08:42:44;;;;;;;;;;;;;;;;;;5102517;28;19914;-83
2023/12/13 08:45:10;;;;;;;;;;;;;;;;;;5102637;28;20286;-82
2023/12/13 08:47:35;;;;;;;;;;;;;;;;;;5102124;28;19979;-83
2023/12/13 08:50:00;;;;;;;;;;;;;;;;;;5103326;28;19908;-83
2023/12/13 08:52:25;;;;;;;;;;;;;;;;;;5103279;28;19916;-83
2023/12/13 08:54:50;;;;;;;;;;;;;;;;;;5101875;28;19930;-83
2023/12/13 08:57:15;;;;;;;;;;;;;;;;;;5101428;28;19912;-83
2023/12/13 08:59:40;;;;;;;;;;;;;;;;;;5103032;28;19908;-83
2023/12/13 09:02:06;;;;;;;;;;;;;;;;;;5101150;28;19908;-83
2023/12/13 09:04:31;;;;;;;;;;;;;;;;;;5102050;28;19912;-83
2023/12/13 09:06:56;;;;;;;;;;;;;;;;;;5102070;28;19908;-82
2023/12/13 09:09:21;;;;;;;;;;;;;;;;;;5105645;28;19922;-82
2023/12/13 09:11:47;;;;;;;;;;;;;;;;;;5106680;28;20483;-82
2023/12/13 09:14:12;;;;;;;;;;;;;;;;;;5106298;28;20369;-83
2023/12/13 09:16:38;;;;;;;;;;;;;;;;;;5106082;28;19916;-82
2023/12/13 09:19:04;;;;;;;;;;;;;;;;;;5098221;28;19912;-82
2023/12/13 09:21:29;;;;;;;;;;;;;;;;;;5105922;28;19915;-83
2023/12/13 09:23:54;;;;;;;;;;;;;;;;;;5105012;28;19908;-82
2023/12/13 09:26:19;;;;;;;;;;;;;;;;;;5106364;28;19908;-82
2023/12/13 09:28:44;;;;;;;;;;;;;;;;;;5105758;28;20410;-81
2023/12/13 09:31:10;;;;;;;;;;;;;;;;;;5105000;28;19908;-82
2023/12/13 09:33:36;;;;;;;;;;;;;;;;;;5105267;28;19990;-83
2023/12/13 09:36:01;;;;;;;;;;;;;;;;;;5104207;28;19908;-82
2023/12/13 09:38:26;;;;;;;;;;;;;;;;;;5106014;28;19911;-82
2023/12/13 09:40:51;;;;;;;;;;;;;;;;;;5104896;28;19919;-83
2023/12/13 09:43:17;;;;;;;;;;;;;;;;;;5106585;28;19908;-83
2023/12/13 09:45:42;;;;;;;;;;;;;;;;;;5104656;28;19908;-82
2023/12/13 09:48:07;;;;;;;;;;;;;;;;;;5105896;28;20400;-81
2023/12/13 09:50:32;;;;;;;;;;;;;;;;;;5104924;28;20365;-83
2023/12/13 09:52:57;;;;;;;;;;;;;;;;;;5104440;28;19916;-82
2023/12/13 09:55:22;;;;;;;;;;;;;;;;;;5104350;28;20014;-83
2023/12/13 09:57:47;;;;;;;;;;;;;;;;;;5105366;28;19919;-82
2023/12/13 10:00:12;;;;;;;;;;;;;;;;;;5105070;28;20289;-82
2023/12/13 10:02:37;;;;;;;;;;;;;;;;;;5105092;28;19916;-82
2023/12/13 10:05:02;;;;;;;;;;;;;;;;;;5096267;28;19914;-83
2023/12/13 10:07:28;;;;;;;;;;;;;;;;;;5103056;28;19961;-82
2023/12/13 10:09:55;;;;;;;;;;;;;;;;;;5101900;28;19908;-83
2023/12/13 10:12:20;;;;;;;;;;;;;;;;;;5103620;28;19912;-82
2023/12/13 10:14:45;;;;;;;;;;;;;;;;;;5102144;28;19908;-84
2023/12/13 10:17:10;;;;;;;;;;;;;;;;;;5101824;28;19908;-83
2023/12/13 10:19:35;;;;;;;;;;;;;;;;;;5102732;28;19908;-83
2023/12/13 10:22:05;;;;;;;;;;;;;;;;;;5100895;28;19914;-82
2023/12/13 10:24:30;;;;;;;;;;;;;;;;;;5100638;28;20430;-82
2023/12/13 10:26:55;;;;;;;;;;;;;;;;;;5101650;28;20366;-83
2023/12/13 10:29:21;;;;;;;;;;;;;;;;;;5099963;28;19933;-83
2023/12/13 10:31:46;;;;;;;;;;;;;;;;;;5101353;28;19908;-84
2023/12/13 10:34:11;;;;;;;;;;;;;;;;;;5101018;28;20007;-83
2023/12/13 10:36:36;;;;;;;;;;;;;;;;;;5102558;28;19908;-82
2023/12/13 10:39:01;;;;;;;;;;;;;;;;;;5101742;28;20022;-82
2023/12/13 10:41:26;;;;;;;;;;;;;;;;;;5102062;28;20289;-83
2023/12/13 10:43:51;;;;;;;;;;;;;;;;;;5101570;28;20006;-82
2023/12/13 10:46:16;;;;;;;;;;;;;;;;;;5102024;28;20293;-83
2023/12/13 10:48:42;;;;;;;;;;;;;;;;;;5101294;28;19912;-83
2023/12/13 10:51:07;;;;;;;;;;;;;;;;;;5102190;28;19915;-82
2023/12/13 10:53:32;;;;;;;;;;;;;;;;;;5101693;28;19916;-82
2023/12/13 10:55:58;;;;;;;;;;;;;;;;;;5100684;28;19944;-83
2023/12/13 10:58:24;;;;;;;;;;;;;;;;;;5099596;28;19935;-82
2023/12/13 11:00:49;;;;;;;;;;;;;;;;;;5099760;28;20369;-82
2023/12/13 11:03:14;;;;;;;;;;;;;;;;;;5101744;28;19912;-83
2023/12/13 11:05:39;;;;;;;;;;;;;;;;;;5101620;28;19919;-83
2023/12/13 11:08:04;;;;;;;;;;;;;;;;;;5099883;28;19919;-82
2023/12/13 11:10:30;;;;;;;;;;;;;;;;;;5101184;28;19908;-82
2023/12/13 11:12:55;;;;;;;;;;;;;;;;;;5101683;28;19919;-83
2023/12/13 11:15:20;;;;;;;;;;;;;;;;;;5102351;28;19919;-82
2023/12/13 11:17:46;;;;;;;;;;;;;;;;;;5101648;28;20421;-82
2023/12/13 11:20:11;;;;;;;;;;;;;;;;;;5102878;28;20365;-83
2023/12/13 11:22:36;;;;;;;;;;;;;;;;;;5102183;28;20387;-83
2023/12/13 11:25:06;;;;;;;;;;;;;;;;;;5102726;28;20427;-82
2023/12/13 11:27:31;;;;;;;;;;;;;;;;;;5101279;28;19912;-82
2023/12/13 11:29:56;;;;;;;;;;;;;;;;;;5101029;28;19915;-82
2023/12/13 11:32:21;;;;;;;;;;;;;;;;;;5102826;28;19977;-82
2023/12/13 11:34:50;;;;;;;;;;;;;;;;;;5103619;28;19909;-82
2023/12/13 11:37:15;;;;;;;;;;;;;;;;;;5101808;28;19977;-82
2023/12/13 11:39:40;;;;;;;;;;;;;;;;;;5100549;28;19908;-83
2023/12/13 11:42:07;;;;;;;;;;;;;;;;;;5101094;28;19908;-82
2023/12/13 11:44:32;;;;;;;;;;;;;;;;;;5093391;28;19908;-83
2023/12/13 11:46:57;;;;;;;;;;;;;;;;;;5101648;28;19915;-82
2023/12/13 11:49:23;;;;;;;;;;;;;;;;;;5102691;28;19908;-83
2023/12/13 11:51:48;;;;;;;;;;;;;;;;;;5103932;28;19916;-82
2023/12/13 11:54:13;;;;;;;;;;;;;;;;;;5102755;28;19962;-83
2023/12/13 11:56:38;;;;;;;;;;;;;;;;;;5102404;28;19932;-82
2023/12/13 11:59:03;;;;;;;;;;;;;;;;;;5103861;28;19951;-82
2023/12/13 12:01:30;;;;;;;;;;;;;;;;;;5100226;28;20006;-82
2023/12/13 12:03:55;;;;;;;;;;;;;;;;;;5100447;28;19909;-82
2023/12/13 12:06:20;;;;;;;;;;;;;;;;;;5101033;28;20010;-82
2023/12/13 12:08:45;;;;;;;;;;;;;;;;;;5101071;28;19955;-83
2023/12/13 12:11:13;;;;;;;;;;;;;;;;;;5099420;28;19965;-82
2023/12/13 12:13:38;;;;;;;;;;;;;;;;;;5092082;28;20302;-84
2023/12/13 12:16:03;;;;;;;;;;;;;;;;;;5100866;28;19909;-82
2023/12/13 12:18:28;;;;;;;;;;;;;;;;;;5098911;28;20404;-82
2023/12/13 12:20:53;;;;;;;;;;;;;;;;;;5098386;28;20384;-82
2023/12/13 12:23:18;;;;;;;;;;;;;;;;;;5099362;28;19908;-82
2023/12/13 12:25:43;;;;;;;;;;;;;;;;;;5098727;28;19916;-82
2023/12/13 12:28:10;;;;;;;;;;;;;;;;;;5098968;28;19950;-83
2023/12/13 12:30:35;;;;;;;;;;;;;;;;;;5100110;28;19999;-82
2023/12/13 12:33:00;;;;;;;;;;;;;;;;;;5100624;28;19939;-83
2023/12/13 12:35:25;;;;;;;;;;;;;;;;;;5098588;28;19915;-82
2023/12/13 12:37:50;;;;;;;;;;;;;;;;;;5099433;28;19986;-82
2023/12/13 12:40:15;;;;;;;;;;;;;;;;;;5100110;28;20355;-82
2023/12/13 12:42:42;;;;;;;;;;;;;;;;;;5101043;28;19975;-84
2023/12/13 12:45:07;;;;;;;;;;;;;;;;;;5103009;28;20297;-84
2023/12/13 12:47:32;;;;;;;;;;;;;;;;;;5104201;28;19909;-82
2023/12/13 12:49:57;;;;;;;;;;;;;;;;;;5103191;28;20011;-82
2023/12/13 12:52:22;;;;;;;;;;;;;;;;;;5103838;28;20523;-82
2023/12/13 12:54:47;;;;;;;;;;;;;;;;;;5103925;28;20430;-83
2023/12/13 12:57:13;;;;;;;;;;;;;;;;;;5103582;28;20061;-83
2023/12/13 12:59:38;;;;;;;;;;;;;;;;;;5101292;28;20018;-84
2023/12/13 13:02:04;;;;;;;;;;;;;;;;;;5094749;28;20365;-83
2023/12/13 13:04:29;;;;;;;;;;;;;;;;;;5102002;28;19908;-82
2023/12/13 13:06:54;;;;;;;;;;;;;;;;;;5103556;28;19908;-83
2023/12/13 13:09:19;;;;;;;;;;;;;;;;;;5101606;28;19915;-82
2023/12/13 13:11:45;;;;;;;;;;;;;;;;;;5101601;28;19908;-84
2023/12/13 13:14:10;;;;;;;;;;;;;;;;;;5101893;28;19908;-82
2023/12/13 13:16:36;;;;;;;;;;;;;;;;;;5102920;28;19908;-82
2023/12/13 13:19:03;;;;;;;;;;;;;;;;;;5100670;28;19922;-82
2023/12/13 13:21:28;;;;;;;;;;;;;;;;;;5102582;28;19976;-83
2023/12/13 13:23:53;;;;;;;;;;;;;;;;;;5100776;28;19952;-82
2023/12/13 13:26:18;;;;;;;;;;;;;;;;;;5102737;28;19969;-83
2023/12/13 13:28:43;;;;;;;;;;;;;;;;;;5100640;28;20352;-83
2023/12/13 13:31:09;;;;;;;;;;;;;;;;;;5100243;28;19908;-84
2023/12/13 13:33:34;;;;;;;;;;;;;;;;;;5101558;28;19916;-83
2023/12/13 13:35:59;;;;;;;;;;;;;;;;;;5101485;28;19909;-82
2023/12/13 13:38:25;;;;;;;;;;;;;;;;;;5101799;28;19993;-82
2023/12/13 13:40:50;;;;;;;;;;;;;;;;;;5102779;28;19908;-82
2023/12/13 13:43:15;;;;;;;;;;;;;;;;;;5101102;28;20392;-84
2023/12/13 13:45:40;;;;;;;;;;;;;;;;;;5100704;28;19908;-84
2023/12/13 13:48:05;;;;;;;;;;;;;;;;;;5100407;28;19915;-83
2023/12/13 13:50:30;;;;;;;;;;;;;;;;;;5100104;28;20380;-82
2023/12/13 13:52:55;;;;;;;;;;;;;;;;;;5100277;28;20037;-82
2023/12/13 13:55:20;;;;;;;;;;;;;;;;;;5100684;28;20011;-82
2023/12/13 13:57:46;;;;;;;;;;;;;;;;;;5102483;28;20011;-83
2023/12/13 14:00:11;;;;;;;;;;;;;;;;;;5100556;28;19939;-82
2023/12/13 14:02:36;;;;;;;;;;;;;;;;;;5101492;28;19908;-83
2023/12/13 14:05:01;;;;;;;;;;;;;;;;;;5101946;28;19997;-83
2023/12/13 14:07:27;;;;;;;;;;;;;;;;;;5101235;28;19915;-83
2023/12/13 14:09:52;;;;;;;;;;;;;;;;;;5104733;28;19912;-83
2023/12/13 14:12:17;;;;;;;;;;;;;;;;;;5102985;28;19971;-82
2023/12/13 14:14:42;;;;;;;;;;;;;;;;;;5103051;28;20296;-84
2023/12/13 14:17:07;;;;;;;;;;;;;;;;;;5104814;28;19908;-83
2023/12/13 14:19:32;;;;;;;;;;;;;;;;;;5102885;28;19916;-84
2023/12/13 14:21:57;;;;;;;;;;;;;;;;;;5103915;28;19916;-82
2023/12/13 14:24:23;;;;;;;;;;;;;;;;;;5102736;28;19915;-83
2023/12/13 14:26:48;;;;;;;;;;;;;;;;;;5104407;28;19908;-83
2023/12/13 14:29:13;;;;;;;;;;;;;;;;;;5104260;28;20293;-83
2023/12/13 14:31:38;;;;;;;;;;;;;;;;;;5104101;28;19912;-83
2023/12/13 14:34:03;;;;;;;;;;;;;;;;;;5104388;28;19909;-83
2023/12/13 14:36:28;;;;;;;;;;;;;;;;;;5104917;28;19908;-82
2023/12/13 14:38:54;;;;;;;;;;;;;;;;;;5103531;28;19918;-83
2023/12/13 14:41:19;;;;;;;;;;;;;;;;;;5103649;28;19908;-83
2023/12/13 14:43:44;;;;;;;;;;;;;;;;;;5104464;28;19991;-83
2023/12/13 14:46:09;;;;;;;;;;;;;;;;;;5102596;28;19998;-83
2023/12/13 14:48:34;;;;;;;;;;;;;;;;;;5103177;28;19908;-83
2023/12/13 14:50:59;;;;;;;;;;;;;;;;;;5102321;28;19908;-83
2023/12/13 14:53:24;;;;;;;;;;;;;;;;;;5102075;28;19916;-84
2023/12/13 14:55:49;;;;;;;;;;;;;;;;;;5104068;28;19915;-83
2023/12/13 14:58:15;;;;;;;;;;;;;;;;;;5103046;28;19912;-83
2023/12/13 15:00:41;;;;;;;;;;;;;;;;;;5101920;28;20411;-83
2023/12/13 15:03:08;;;;;;;;;;;;;;;;;;5104064;28;19908;-83
2023/12/13 15:05:34;;;;;;;;;;;;;;;;;;5103493;28;19908;-82
2023/12/13 15:08:00;;;;;;;;;;;;;;;;;;5102501;28;19965;-83
2023/12/13 15:10:25;;;;;;;;;;;;;;;;;;5102444;28;19936;-83
2023/12/13 15:12:50;;;;;;;;;;;;;;;;;;5102610;28;19929;-83
2023/12/13 15:15:16;;;;;;;;;;;;;;;;;;5103790;28;20369;-83
2023/12/13 15:17:41;;;;;;;;;;;;;;;;;;5102291;28;19919;-82
2023/12/13 15:20:09;;;;;;;;;;;;;;;;;;5094883;28;19951;-82
2023/12/13 15:22:34;;;;;;;;;;;;;;;;;;5102513;28;19931;-82
2023/12/13 15:25:00;;;;;;;;;;;;;;;;;;5102095;28;19908;-83
2023/12/13 15:27:25;;;;;;;;;;;;;;;;;;5103853;28;20384;-83
2023/12/13 15:29:50;;;;;;;;;;;;;;;;;;5105405;28;19940;-82
2023/12/13 15:32:16;;;;;;;;;;;;;;;;;;5097717;28;19958;-82
2023/12/13 15:34:42;;;;;;;;;;;;;;;;;;5097329;28;19972;-82
2023/12/13 15:37:07;;;;;;;;;;;;;;;;;;5097969;28;19950;-82
2023/12/13 15:39:32;;;;;;;;;;;;;;;;;;5089382;28;19916;-82
2023/12/13 15:41:57;;;;;;;;;;;;;;;;;;5097383;28;19908;-82
2023/12/13 15:44:22;;;;;;;;;;;;;;;;;;5097836;28;19912;-83
2023/12/13 15:46:47;;;;;;;;;;;;;;;;;;5098304;28;19912;-83
2023/12/13 15:49:12;;;;;;;;;;;;;;;;;;5097669;28;19919;-82
2023/12/13 15:51:37;;;;;;;;;;;;;;;;;;5099625;28;19912;-82
2023/12/13 15:54:02;;;;;;;;;;;;;;;;;;5099483;28;19909;-82
2023/12/13 15:56:27;;;;;;;;;;;;;;;;;;5099550;28;19916;-82
2023/12/13 15:58:52;;;;;;;;;;;;;;;;;;5098708;28;19923;-82
2023/12/13 16:01:18;;;;;;;;;;;;;;;;;;5099280;28;19912;-82
2023/12/13 16:03:43;;;;;;;;;;;;;;;;;;5097727;28;19908;-83
2023/12/13 16:06:08;;;;;;;;;;;;;;;;;;5097522;28;20315;-82
2023/12/13 16:08:33;;;;;;;;;;;;;;;;;;5098943;28;19908;-83
2023/12/13 16:11:00;;;;;;;;;;;;;;;;;;5098758;28;19957;-83
2023/12/13 16:13:26;;;;;;;;;;;;;;;;;;5099303;28;19972;-84
2023/12/13 16:15:51;;;;;;;;;;;;;;;;;;5098192;28;19970;-83
2023/12/13 16:18:16;;;;;;;;;;;;;;;;;;5101443;28;19919;-82
2023/12/13 16:20:41;;;;;;;;;;;;;;;;;;5103523;28;19919;-83
2023/12/13 16:23:06;;;;;;;;;;;;;;;;;;5099971;28;19912;-78
2023/12/13 16:25:31;;;;;;;;;;;;;;;;;;5094486;28;19971;-84
2023/12/13 16:27:56;;;;;;;;;;;;;;;;;;5092656;28;19908;-82
2023/12/13 16:30:23;;;;;;;;;;;;;;;;;;5101110;28;20380;-84
2023/12/13 16:32:49;;;;;;;;;;;;;;;;;;5100614;28;19998;-82